createdAt,value
2018-01-12T00:00:50.707Z,6.40
2018-01-12T00:03:18.201Z,6.40
2018-01-12T00:05:45.716Z,6.40
2018-01-12T00:08:13.222Z,6.40
2018-01-12T00:10:40.742Z,6.40
2018-01-12T00:13:09.007Z,6.30
2018-01-12T00:15:36.518Z,6.30
2018-01-12T00:18:04.031Z,6.30
2018-01-12T00:20:31.526Z,6.40
2018-01-12T00:22:59.028Z,6.40
2018-01-12T00:25:26.526Z,6.40
2018-01-12T00:27:54.795Z,6.40
2018-01-12T00:30:23.067Z,6.40
2018-01-12T00:32:51.458Z,6.40
2018-01-12T00:35:19.718Z,6.40
2018-01-12T00:37:47.986Z,6.40
2018-01-12T00:40:15.491Z,6.40
2018-01-12T00:42:42.988Z,6.40
2018-01-12T00:45:10.498Z,6.40
2018-01-12T00:47:37.995Z,6.50
2018-01-12T00:50:05.567Z,6.50
2018-01-12T00:52:33.218Z,6.60
2018-01-12T00:55:00.754Z,6.60
2018-01-12T00:57:28.995Z,6.50
2018-01-12T00:59:57.258Z,6.40
2018-01-12T01:02:25.531Z,6.40
2018-01-12T01:04:53.034Z,6.40
2018-01-12T01:07:20.535Z,6.40
2018-01-12T01:09:48.052Z,6.50
2018-01-12T01:12:15.554Z,6.40
2018-01-12T01:14:43.055Z,6.40
2018-01-12T01:17:10.554Z,6.50
2018-01-12T01:19:38.255Z,6.40
2018-01-12T01:22:06.519Z,6.40
2018-01-12T01:24:34.018Z,6.30
2018-01-12T01:27:01.534Z,6.30
2018-01-12T01:29:29.826Z,6.40
2018-01-12T01:31:58.099Z,6.50
2018-01-12T01:34:26.367Z,6.50
2018-01-12T01:36:54.639Z,6.40
2018-01-12T01:39:22.139Z,6.50
2018-01-12T01:41:49.680Z,6.50
2018-01-12T01:44:17.954Z,6.60
2018-01-12T01:46:46.211Z,6.50
2018-01-12T01:49:13.727Z,6.50
2018-01-12T01:51:41.342Z,6.60
2018-01-12T01:54:09.600Z,6.50
2018-01-12T01:56:37.096Z,6.50
2018-01-12T01:59:04.635Z,6.50
2018-01-12T02:01:32.898Z,6.50
2018-01-12T02:04:00.402Z,6.50
2018-01-12T02:06:27.899Z,6.50
2018-01-12T02:08:55.391Z,6.50
2018-01-12T02:11:23.655Z,6.50
2018-01-12T02:13:51.939Z,6.50
2018-01-12T02:16:20.207Z,6.50
2018-01-12T02:18:48.480Z,6.50
2018-01-12T02:21:15.990Z,6.50
2018-01-12T02:23:43.514Z,6.40
2018-01-12T02:26:11.814Z,6.40
2018-01-12T02:28:39.310Z,6.40
2018-01-12T02:31:06.860Z,6.40
2018-01-12T02:33:34.363Z,6.40
2018-01-12T02:36:02.639Z,6.40
2018-01-12T02:38:30.899Z,6.30
2018-01-12T02:40:58.402Z,6.30
2018-01-12T02:43:26.019Z,6.30
2018-01-12T02:45:53.705Z,6.20
2018-01-12T02:48:21.967Z,6.20
2018-01-12T02:50:50.232Z,6.20
2018-01-12T02:53:17.728Z,6.20
2018-01-12T02:55:45.406Z,6.30
2018-01-12T02:58:12.908Z,6.20
2018-01-12T03:00:40.404Z,6.20
2018-01-12T03:03:07.902Z,6.20
2018-01-12T03:05:35.446Z,6.20
2018-01-12T03:08:03.166Z,6.10
2018-01-12T03:10:31.430Z,6.10
2018-01-12T03:12:59.696Z,6.10
2018-01-12T03:15:27.217Z,6.10
2018-01-12T03:17:54.726Z,6.10
2018-01-12T03:20:22.999Z,6.00
2018-01-12T03:22:51.287Z,6.00
2018-01-12T03:25:19.552Z,6.00
2018-01-12T03:27:47.823Z,6.00
2018-01-12T03:30:15.328Z,6.00
2018-01-12T03:32:42.829Z,6.00
2018-01-12T03:35:10.340Z,6.10
2018-01-12T03:37:37.834Z,6.10
2018-01-12T03:40:05.331Z,6.00
2018-01-12T03:42:33.595Z,6.10
2018-01-12T03:45:01.268Z,6.10
2018-01-12T03:47:29.547Z,6.10
2018-01-12T03:49:57.819Z,6.10
2018-01-12T03:52:26.120Z,6.00
2018-01-12T03:54:53.617Z,6.00
2018-01-12T03:57:21.112Z,6.00
2018-01-12T03:59:49.383Z,6.10
2018-01-12T04:02:17.650Z,6.10
2018-01-12T04:04:45.158Z,6.10
2018-01-12T04:07:12.675Z,6.10
2018-01-12T04:09:40.951Z,6.10
2018-01-12T04:12:09.228Z,6.10
2018-01-12T04:14:37.502Z,6.10
2018-01-12T04:17:05.778Z,6.10
2018-01-12T04:19:34.038Z,6.00
2018-01-12T04:22:01.531Z,6.00
2018-01-12T04:24:29.815Z,6.00
2018-01-12T04:26:57.323Z,6.00
2018-01-12T04:29:24.823Z,6.00
2018-01-12T04:31:53.095Z,6.10
2018-01-12T04:34:21.375Z,6.10
2018-01-12T04:36:49.647Z,6.20
2018-01-12T04:39:17.910Z,6.10
2018-01-12T04:41:46.270Z,6.10
2018-01-12T04:44:13.767Z,6.10
2018-01-12T04:46:41.276Z,6.20
2018-01-12T04:49:08.784Z,6.20
2018-01-12T04:51:36.284Z,6.20
2018-01-12T04:54:03.778Z,6.20
2018-01-12T04:56:32.069Z,6.10
2018-01-12T04:59:00.345Z,6.10
2018-01-12T05:01:28.636Z,6.00
2018-01-12T05:03:56.256Z,6.00
2018-01-12T05:06:23.766Z,6.00
2018-01-12T05:08:51.271Z,6.00
2018-01-12T05:11:18.972Z,5.90
2018-01-12T05:13:46.628Z,6.00
2018-01-12T05:16:15.192Z,6.00
2018-01-12T05:18:43.481Z,6.00
2018-01-12T05:21:11.775Z,5.90
2018-01-12T05:23:39.271Z,5.90
2018-01-12T05:26:06.763Z,6.00
2018-01-12T05:28:35.043Z,5.90
2018-01-12T05:31:03.311Z,5.90
2018-01-12T05:33:30.807Z,5.90
2018-01-12T05:35:58.309Z,5.90
2018-01-12T05:38:25.829Z,5.90
2018-01-12T05:40:54.218Z,5.90
2018-01-12T05:43:21.723Z,5.90
2018-01-12T05:45:49.223Z,5.90
2018-01-12T05:50:50.666Z,5.90
2018-01-12T05:53:18.942Z,5.90
2018-01-12T05:55:47.227Z,5.90
2018-01-12T05:58:15.507Z,5.90
2018-01-12T06:14:09.497Z,5.90
2018-01-12T06:16:37.007Z,5.90
2018-01-12T06:19:05.276Z,5.90
2018-01-12T06:21:32.800Z,5.80
2018-01-12T06:24:00.315Z,5.90
2018-01-12T06:26:28.583Z,5.90
2018-01-12T06:28:56.839Z,6.00
2018-01-12T06:31:24.339Z,6.00
2018-01-12T06:33:51.835Z,6.00
2018-01-12T06:36:19.326Z,6.00
2018-01-12T06:38:46.828Z,5.90
2018-01-12T06:41:14.347Z,6.00
2018-01-12T06:43:42.606Z,6.00
2018-01-12T06:46:10.163Z,6.00
2018-01-12T06:48:37.673Z,6.00
2018-01-12T06:51:05.173Z,6.00
2018-01-12T06:53:32.739Z,6.00
2018-01-12T06:56:00.208Z,6.00
2018-01-12T06:58:27.706Z,5.90
2018-01-12T07:00:55.207Z,5.90
2018-01-12T07:03:22.711Z,5.90
2018-01-12T07:05:50.219Z,5.90
2018-01-12T07:08:17.718Z,5.90
2018-01-12T07:10:45.983Z,5.80
2018-01-12T07:13:14.262Z,5.80
2018-01-12T07:15:42.522Z,5.80
2018-01-12T07:18:10.039Z,5.80
2018-01-12T07:20:49.528Z,5.90
2018-01-12T07:23:31.922Z,6.10
2018-01-12T07:25:59.431Z,6.10
2018-01-12T07:28:26.935Z,6.20
2018-01-12T07:30:54.446Z,6.20
2018-01-12T07:33:21.944Z,6.30
2018-01-12T07:35:49.450Z,6.20
2018-01-12T07:38:16.954Z,6.20
2018-01-12T07:40:44.462Z,6.20
2018-01-12T07:43:12.726Z,6.10
2018-01-12T07:45:41.223Z,6.10
2018-01-12T07:48:09.504Z,6.00
2018-01-12T07:50:37.007Z,6.00
2018-01-12T07:53:10.203Z,6.00
2018-01-12T07:55:37.697Z,6.00
2018-01-12T07:58:06.004Z,5.90
2018-01-12T08:00:39.359Z,5.90
2018-01-12T08:03:07.627Z,5.90
2018-01-12T08:05:35.306Z,5.80
2018-01-12T08:08:03.653Z,5.90
2018-01-12T08:10:31.342Z,5.90
2018-01-12T08:12:59.608Z,6.00
2018-01-12T08:15:27.107Z,6.00
2018-01-12T08:17:54.651Z,6.00
2018-01-12T08:20:22.154Z,6.00
2018-01-12T08:22:49.654Z,6.00
2018-01-12T08:25:17.970Z,6.00
2018-01-12T08:27:45.498Z,6.00
2018-01-12T08:30:13.035Z,6.00
2018-01-12T08:32:40.555Z,6.00
2018-01-12T08:35:08.077Z,6.00
2018-01-12T08:37:36.375Z,6.00
2018-01-12T08:40:03.890Z,6.00
2018-01-12T08:42:31.416Z,6.00
2018-01-12T08:44:58.951Z,6.00
2018-01-12T08:47:26.617Z,6.00
2018-01-12T08:49:54.203Z,6.00
2018-01-12T08:52:21.921Z,6.00
2018-01-12T08:54:49.475Z,6.00
2018-01-12T08:57:17.793Z,6.00
2018-01-12T08:59:45.302Z,6.00
2018-01-12T09:02:13.562Z,6.10
2018-01-12T09:04:41.840Z,6.00
2018-01-12T09:07:09.347Z,6.00
2018-01-12T09:09:36.845Z,6.00
2018-01-12T09:12:04.334Z,6.00
2018-01-12T09:14:44.423Z,5.90
2018-01-12T09:17:12.719Z,5.90
2018-01-12T09:19:48.224Z,5.90
2018-01-12T09:22:27.715Z,5.90
2018-01-12T09:24:55.234Z,5.90
2018-01-12T09:27:22.736Z,5.90
2018-01-12T09:29:50.246Z,5.90
2018-01-12T09:32:18.115Z,5.90
2018-01-12T09:35:05.442Z,5.90
2018-01-12T09:37:39.826Z,5.90
2018-01-12T09:40:29.046Z,5.90
2018-01-12T09:42:56.579Z,5.90
2018-01-12T09:45:24.104Z,5.90
2018-01-12T09:48:03.474Z,5.90
2018-01-12T09:50:31.037Z,5.90
2018-01-12T09:52:58.606Z,5.80
2018-01-12T09:55:26.252Z,5.90
2018-01-12T09:57:53.771Z,5.90
2018-01-12T10:13:48.778Z,5.90
2018-01-12T10:16:17.149Z,5.90
2018-01-12T10:18:45.424Z,6.00
2018-01-12T10:21:24.815Z,6.00
2018-01-12T10:23:52.394Z,6.00
2018-01-12T10:26:19.858Z,6.00
2018-01-12T10:29:08.302Z,6.10
2018-01-12T10:31:50.680Z,6.00
2018-01-12T10:34:24.070Z,5.90
2018-01-12T10:36:55.662Z,6.00
2018-01-12T10:39:23.170Z,6.00
2018-01-12T10:42:01.730Z,6.00
2018-01-12T10:44:29.243Z,6.10
2018-01-12T10:47:08.701Z,6.10
2018-01-12T10:49:36.218Z,6.00
2018-01-12T10:52:12.592Z,6.10
2018-01-12T10:54:40.870Z,6.10
2018-01-12T10:57:09.137Z,6.10
2018-01-12T10:59:37.410Z,6.00
2018-01-12T11:02:04.906Z,6.00
2018-01-12T11:04:32.418Z,6.00
2018-01-12T11:06:59.984Z,6.00
2018-01-12T11:09:27.482Z,6.00
2018-01-12T11:11:54.974Z,6.00
2018-01-12T11:14:22.474Z,6.00
2018-01-12T11:16:50.745Z,5.90
2018-01-12T11:19:19.226Z,6.00
2018-01-12T11:21:47.496Z,5.90
2018-01-12T11:24:15.756Z,5.90
2018-01-12T11:26:43.270Z,5.90
2018-01-12T11:29:10.771Z,5.90
2018-01-12T11:31:38.333Z,5.90
2018-01-12T11:34:05.827Z,5.90
2018-01-12T11:36:33.334Z,5.90
2018-01-12T11:39:00.852Z,6.00
2018-01-12T11:41:28.342Z,6.00
2018-01-12T11:43:56.259Z,6.00
2018-01-12T11:46:24.527Z,6.10
2018-01-12T11:48:52.809Z,6.10
2018-01-12T11:51:21.111Z,6.00
2018-01-12T11:53:48.607Z,6.00
2018-01-12T11:56:16.103Z,6.00
2018-01-12T11:58:44.390Z,6.00
2018-01-12T12:01:12.642Z,6.10
2018-01-12T12:03:40.162Z,6.10
2018-01-12T12:06:07.670Z,6.00
2018-01-12T12:08:35.938Z,6.10
2018-01-12T12:11:03.435Z,6.10
2018-01-12T12:13:30.937Z,6.10
2018-01-12T12:15:58.438Z,6.00
2018-01-12T12:18:25.943Z,6.10
2018-01-12T12:20:53.437Z,6.00
2018-01-12T12:23:21.703Z,6.10
2018-01-12T12:25:49.200Z,6.10
2018-01-12T12:28:16.705Z,6.20
2018-01-12T12:30:45.718Z,6.20
2018-01-12T12:33:14.000Z,6.10
2018-01-12T12:35:42.262Z,6.10
2018-01-12T12:38:09.763Z,6.10
2018-01-12T12:40:37.295Z,6.10
2018-01-12T12:43:05.562Z,6.10
2018-01-12T12:45:33.822Z,6.10
2018-01-12T12:48:01.342Z,6.10
2018-01-12T12:50:28.839Z,6.10
2018-01-12T12:52:56.344Z,6.10
2018-01-12T12:55:23.854Z,6.10
2018-01-12T12:57:51.353Z,6.10
2018-01-12T13:00:18.854Z,6.10
2018-01-12T13:02:46.389Z,6.10
2018-01-12T13:05:13.887Z,6.20
2018-01-12T13:07:41.386Z,6.20
2018-01-12T13:10:08.898Z,6.20
2018-01-12T13:12:36.394Z,6.30
2018-01-12T13:15:04.650Z,6.30
2018-01-12T13:17:32.144Z,6.30
2018-01-12T13:19:59.648Z,6.30
2018-01-12T13:22:27.140Z,6.40
2018-01-12T13:24:55.401Z,6.20
2018-01-12T13:27:23.706Z,6.30
2018-01-12T13:29:51.217Z,6.30
2018-01-12T13:32:18.712Z,6.20
2018-01-12T13:34:46.971Z,6.20
2018-01-12T13:37:14.463Z,6.20
2018-01-12T13:39:41.962Z,6.30
2018-01-12T13:42:09.484Z,6.30
2018-01-12T13:44:36.978Z,6.20
2018-01-12T13:47:04.492Z,6.20
2018-01-12T13:49:32.011Z,6.20
2018-01-12T13:51:59.519Z,6.20
2018-01-12T13:54:27.018Z,6.20
2018-01-12T13:56:54.526Z,6.30
2018-01-12T13:59:22.047Z,6.30
2018-01-12T14:01:49.530Z,6.30
2018-01-12T14:04:17.807Z,6.20
2018-01-12T14:06:46.266Z,6.20
2018-01-12T14:09:13.760Z,6.20
2018-01-12T14:11:41.279Z,6.30
2018-01-12T14:14:09.550Z,6.30
2018-01-12T14:16:37.810Z,6.20
2018-01-12T14:19:05.302Z,6.30
2018-01-12T14:21:33.559Z,6.20
2018-01-12T14:24:01.238Z,6.20
2018-01-12T14:26:29.507Z,6.20
2018-01-12T14:28:57.014Z,6.20
2018-01-12T14:31:24.522Z,6.30
2018-01-12T14:33:52.020Z,6.30
2018-01-12T14:36:19.516Z,6.30
2018-01-12T14:38:47.026Z,6.30
2018-01-12T14:41:14.527Z,6.30
2018-01-12T14:43:42.038Z,6.30
2018-01-12T14:46:10.343Z,6.40
2018-01-12T14:48:37.838Z,6.30
2018-01-12T14:51:05.402Z,6.40
2018-01-12T14:53:32.894Z,6.30
2018-01-12T14:56:00.399Z,6.30
2018-01-12T14:58:27.947Z,6.30
2018-01-12T15:00:55.442Z,6.40
2018-01-12T15:03:22.938Z,6.40
2018-01-12T15:05:50.459Z,6.40
2018-01-12T15:08:18.723Z,6.40
2018-01-12T15:10:46.234Z,6.40
2018-01-12T15:13:13.730Z,6.40
2018-01-12T15:15:41.311Z,6.40
2018-01-12T15:18:08.810Z,6.30
2018-01-12T15:20:36.307Z,6.30
2018-01-12T15:23:03.846Z,6.30
2018-01-12T15:25:31.342Z,6.30
2018-01-12T15:27:58.844Z,6.30
2018-01-12T15:30:26.343Z,6.30
2018-01-12T15:32:53.838Z,6.40
2018-01-12T15:35:22.107Z,6.30
2018-01-12T15:37:50.470Z,6.30
2018-01-12T15:40:17.970Z,6.30
2018-01-12T15:42:45.466Z,6.30
2018-01-12T15:45:12.958Z,6.30
2018-01-12T15:47:41.215Z,6.30
2018-01-12T15:50:08.726Z,6.30
2018-01-12T15:52:36.239Z,6.30
2018-01-12T15:55:03.736Z,6.30
2018-01-12T15:57:31.244Z,6.30
2018-01-12T15:59:58.765Z,6.30
2018-01-12T16:02:26.270Z,6.30
2018-01-12T16:04:53.772Z,6.30
2018-01-12T16:07:21.271Z,6.30
2018-01-12T16:09:48.888Z,6.40
2018-01-12T16:12:16.378Z,6.40
2018-01-12T16:14:43.898Z,6.40
2018-01-12T16:17:11.398Z,6.40
2018-01-12T16:19:38.893Z,6.40
2018-01-12T16:22:07.170Z,6.50
2018-01-12T16:24:35.442Z,6.60
2018-01-12T16:27:03.714Z,6.60
2018-01-12T16:29:31.978Z,6.60
2018-01-12T16:31:59.518Z,6.50
2018-01-12T16:34:27.018Z,6.50
2018-01-12T16:36:55.284Z,6.50
2018-01-12T16:39:22.816Z,6.50
2018-01-12T16:41:50.316Z,6.50
2018-01-12T16:44:18.577Z,6.40
2018-01-12T16:46:46.068Z,6.40
2018-01-12T16:49:13.570Z,6.40
2018-01-12T16:51:41.089Z,6.40
2018-01-12T16:54:08.578Z,6.40
2018-01-12T16:56:36.082Z,6.40
2018-01-12T16:59:04.346Z,6.40
2018-01-12T17:01:32.624Z,6.40
2018-01-12T17:04:00.898Z,6.30
2018-01-12T17:06:29.206Z,6.30
2018-01-12T17:08:56.698Z,6.30
2018-01-12T17:11:24.195Z,6.30
2018-01-12T17:13:52.470Z,6.30
2018-01-12T17:16:20.782Z,6.20
2018-01-12T17:18:48.279Z,6.20
2018-01-12T17:21:15.796Z,6.20
2018-01-12T17:23:43.302Z,6.20
2018-01-12T17:26:10.802Z,6.20
2018-01-12T17:28:38.299Z,6.10
2018-01-12T17:31:05.806Z,6.20
2018-01-12T17:33:34.071Z,6.10
2018-01-12T17:36:02.342Z,6.00
2018-01-12T17:38:29.951Z,6.00
2018-01-12T17:40:57.450Z,6.00
2018-01-12T17:43:24.991Z,6.00
2018-01-12T17:45:52.490Z,5.90
2018-01-12T17:48:20.863Z,5.90
2018-01-12T17:50:49.130Z,5.80
2018-01-12T17:53:16.812Z,5.80
2018-01-12T17:55:45.090Z,5.80
2018-01-12T17:58:13.357Z,5.80
2018-01-12T18:00:41.752Z,5.70
2018-01-12T18:03:09.252Z,5.70
2018-01-12T18:05:36.763Z,5.70
2018-01-12T18:08:05.020Z,5.70
2018-01-12T18:10:32.534Z,5.60
2018-01-12T18:13:00.032Z,5.70
2018-01-12T18:15:27.708Z,5.70
2018-01-12T18:17:55.976Z,5.60
2018-01-12T18:20:23.651Z,5.60
2018-01-12T18:22:51.910Z,5.60
2018-01-12T18:25:19.411Z,5.60
2018-01-12T18:27:46.920Z,5.60
2018-01-12T18:30:14.422Z,5.60
2018-01-12T18:32:41.933Z,5.60
2018-01-12T18:35:09.427Z,5.60
2018-01-12T18:37:36.922Z,5.60
2018-01-12T18:40:04.442Z,5.60
2018-01-12T18:42:32.706Z,5.50
2018-01-12T18:45:00.971Z,5.50
2018-01-12T18:47:28.483Z,5.50
2018-01-12T18:49:55.991Z,5.50
2018-01-12T18:52:23.486Z,5.50
2018-01-12T18:54:50.987Z,5.50
2018-01-12T18:57:18.604Z,5.50
2018-01-12T18:59:46.146Z,5.50
2018-01-12T19:02:14.423Z,5.50
2018-01-12T19:04:42.693Z,5.60
2018-01-12T19:07:11.006Z,5.60
2018-01-12T19:09:38.526Z,5.60
2018-01-12T19:12:06.790Z,6.20
2018-01-12T19:14:35.085Z,6.20
2018-01-12T19:17:03.362Z,6.10
2018-01-12T19:19:31.621Z,6.00
2018-01-12T19:21:59.882Z,5.90
2018-01-12T19:24:27.567Z,5.90
2018-01-12T19:26:55.078Z,5.90
2018-01-12T19:29:22.576Z,5.80
2018-01-12T19:31:50.887Z,5.80
2018-01-12T19:34:18.386Z,5.70
2018-01-12T19:36:45.887Z,5.70
2018-01-12T19:39:13.391Z,5.70
2018-01-12T19:41:40.903Z,5.70
2018-01-12T19:44:09.211Z,5.70
2018-01-12T19:46:36.714Z,5.70
2018-01-12T19:49:04.293Z,5.70
2018-01-12T19:51:32.608Z,5.60
2018-01-12T19:54:00.118Z,5.60
2018-01-12T19:56:28.426Z,5.60
2018-01-12T19:58:55.954Z,5.50
2018-01-12T20:01:24.283Z,5.50
2018-01-12T20:03:51.901Z,5.50
2018-01-12T20:06:20.168Z,5.50
2018-01-12T20:08:48.458Z,5.50
2018-01-12T20:11:16.776Z,5.50
2018-01-12T20:13:44.279Z,5.50
2018-01-12T20:16:12.554Z,5.50
2018-01-12T20:18:40.855Z,5.50
2018-01-12T20:21:08.365Z,5.50
2018-01-12T20:23:35.891Z,5.50
2018-01-12T20:26:03.394Z,5.60
2018-01-12T20:28:30.946Z,5.60
2018-01-12T20:30:58.461Z,5.60
2018-01-12T20:33:25.979Z,5.60
2018-01-12T20:35:53.476Z,5.60
2018-01-12T20:38:20.983Z,5.60
2018-01-12T20:40:48.493Z,5.60
2018-01-12T20:43:15.994Z,5.60
2018-01-12T20:45:43.500Z,5.60
2018-01-12T20:48:11.018Z,5.60
2018-01-12T20:50:38.536Z,5.50
2018-01-12T20:53:06.173Z,5.50
2018-01-12T20:55:33.680Z,5.50
2018-01-12T20:58:01.182Z,5.50
2018-01-12T21:00:29.470Z,5.40
2018-01-12T21:02:56.982Z,5.30
2018-01-12T21:05:24.690Z,5.30
2018-01-12T21:07:52.959Z,5.20
2018-01-12T21:10:20.466Z,5.20
2018-01-12T21:12:47.966Z,5.30
2018-01-12T21:15:16.235Z,5.20
2018-01-12T21:17:44.527Z,5.20
2018-01-12T21:20:12.815Z,5.10
2018-01-12T21:22:40.376Z,5.10
2018-01-12T21:25:07.847Z,5.10
2018-01-12T21:27:35.378Z,5.10
2018-01-12T21:30:03.659Z,5.10
2018-01-12T21:32:31.173Z,5.00
2018-01-12T21:34:58.696Z,5.10
2018-01-12T21:37:26.200Z,5.10
2018-01-12T21:39:53.708Z,5.10
2018-01-12T21:42:21.205Z,5.10
2018-01-12T21:44:48.747Z,5.10
2018-01-12T21:47:16.462Z,5.00
2018-01-12T21:49:44.746Z,5.00
2018-01-12T21:52:13.016Z,5.00
2018-01-12T21:54:41.283Z,5.00
2018-01-12T21:57:08.810Z,5.00
2018-01-12T21:59:36.316Z,5.00
2018-01-12T22:02:04.636Z,4.90
2018-01-12T22:04:32.158Z,5.00
2018-01-12T22:07:00.514Z,4.90
2018-01-12T22:09:28.026Z,4.90
2018-01-12T22:11:55.544Z,4.90
2018-01-12T22:14:23.829Z,4.90
2018-01-12T22:16:52.103Z,4.80
2018-01-12T22:19:20.380Z,4.80
2018-01-12T22:21:48.676Z,4.80
2018-01-12T22:24:16.260Z,4.80
2018-01-12T22:26:43.808Z,4.80
2018-01-12T22:29:11.325Z,4.80
2018-01-12T22:31:39.616Z,4.70
2018-01-12T22:34:07.895Z,4.70
2018-01-12T22:36:35.442Z,4.70
2018-01-12T22:39:03.770Z,4.70
2018-01-12T22:41:31.530Z,4.70
2018-01-12T22:43:59.087Z,4.70
2018-01-12T22:46:26.624Z,4.60
2018-01-12T22:48:54.156Z,4.60
2018-01-12T22:51:22.441Z,4.60
2018-01-12T22:53:50.780Z,4.60
2018-01-12T22:56:18.291Z,4.60
2018-01-12T22:58:45.831Z,4.60
2018-01-12T23:01:14.134Z,4.50
2018-01-12T23:03:41.942Z,4.60
2018-01-12T23:06:09.491Z,4.50
2018-01-12T23:08:37.056Z,4.60
2018-01-12T23:11:04.724Z,4.50
2018-01-12T23:13:32.380Z,4.50
2018-01-12T23:15:59.940Z,4.50
2018-01-12T23:18:27.600Z,4.50
2018-01-12T23:20:55.222Z,4.40
2018-01-12T23:23:22.735Z,4.50
2018-01-12T23:25:50.226Z,4.50
2018-01-12T23:28:17.732Z,4.50
2018-01-12T23:30:45.227Z,4.50
2018-01-12T23:33:13.490Z,4.50
2018-01-12T23:35:40.988Z,4.50
2018-01-12T23:38:08.498Z,4.50
2018-01-12T23:40:36.799Z,4.40
2018-01-12T23:43:05.072Z,4.40
2018-01-12T23:45:33.334Z,4.40
2018-01-12T23:48:00.870Z,4.40
2018-01-12T23:50:28.415Z,4.40
2018-01-12T23:52:56.470Z,4.30
2018-01-12T23:55:23.979Z,4.40
2018-01-12T23:57:51.471Z,4.40
